Time;durP1;ratioP1;P1;durP2;ratioP2;P2;SDS_P1;SDS_P2;PMS_P1;PMS_P2;Temp;Humidity;BMP_temperature;BMP_pressure;BME280_temperature;BME280_humidity;BME280_pressure;Samples;Min_cycle;Max_cycle;Signal;HPM_P1;HPM_P2
2022/07/01 00:00:11;;;;;;;;;1.00;1.00;;;;;19.88;51.83;101078.66;2080270;28;47659;-49
2022/07/01 00:01:11;;;;;;;;;0.20;0.20;;;;;19.87;51.44;101085.88;2079540;28;48694;-47
2022/07/01 00:02:13;;;;;;;;;2.00;2.00;;;;;19.86;51.71;101081.44;2080516;28;46653;-51
2022/07/01 00:03:13;;;;;;;;;2.50;2.50;;;;;19.85;51.53;101076.13;2082452;28;47749;-53
2022/07/01 00:04:14;;;;;;;;;1.25;1.25;;;;;19.84;52.00;101077.09;2079348;28;48043;-48
2022/07/01 00:05:14;;;;;;;;;1.25;1.25;;;;;19.83;51.90;101076.22;2083185;28;47573;-52
2022/07/01 00:06:16;;;;;;;;;1.00;1.00;;;;;19.82;52.10;101078.97;2083326;28;47596;-48
2022/07/01 00:07:17;;;;;;;;;0.25;0.25;;;;;19.82;51.94;101078.97;2083469;28;47734;-51
2022/07/01 00:08:18;;;;;;;;;2.80;2.20;;;;;19.81;52.24;101078.09;2081537;28;47641;-52
2022/07/01 00:09:18;;;;;;;;;1.00;1.00;;;;;19.80;52.06;101078.19;2078874;28;48101;-48
2022/07/01 00:10:19;;;;;;;;;2.00;2.00;;;;;19.79;52.08;101085.41;2082960;28;47836;-49
2022/07/01 00:11:21;;;;;;;;;2.00;1.00;;;;;19.79;52.34;101082.72;2082760;28;46273;-48
2022/07/01 00:12:21;;;;;;;;;0.00;0.00;;;;;19.78;51.90;101080.97;2084762;28;47387;-49
2022/07/01 00:13:21;;;;;;;;;2.67;1.67;;;;;19.78;52.66;101090.88;2082536;28;47677;-49
2022/07/01 00:14:25;;;;;;;;;1.00;1.00;;;;;19.77;52.51;101081.06;2078871;28;47991;-50
2022/07/01 00:15:25;;;;;;;;;1.80;1.80;;;;;19.77;52.37;101089.13;2080669;28;47569;-47
2022/07/01 00:16:25;;;;;;;;;0.67;0.33;;;;;19.76;52.21;101084.72;2079881;28;47501;-49
2022/07/01 00:17:26;;;;;;;;;5.00;4.50;;;;;19.75;52.49;101082.97;2082207;28;47618;-49
2022/07/01 00:18:27;;;;;;;;;2.00;2.00;;;;;19.75;52.23;101085.66;2082792;28;47338;-48
2022/07/01 00:19:27;;;;;;;;;1.00;1.00;;;;;19.73;52.45;101077.66;2085433;28;47890;-50
2022/07/01 00:20:28;;;;;;;;;0.00;0.00;;;;;19.73;52.46;101082.19;2080061;28;48058;-51
2022/07/01 00:21:28;;;;;;;;;0.00;0.00;;;;;19.72;52.66;101081.31;2081446;28;47524;-48
2022/07/01 00:22:29;;;;;;;;;2.33;0.33;;;;;19.71;52.26;101084.97;2082984;28;47360;-47
2022/07/01 00:23:30;;;;;;;;;0.00;0.00;;;;;19.71;52.48;101078.72;2084319;28;47479;-51
2022/07/01 00:24:31;;;;;;;;;0.00;0.00;;;;;19.69;52.48;101085.06;2084782;28;47303;-51
2022/07/01 00:25:31;;;;;;;;;2.75;2.00;;;;;19.66;52.46;101082.50;2080880;28;47828;-52
2022/07/01 00:26:32;;;;;;;;;1.67;0.33;;;;;19.66;52.32;101087.88;2083731;28;47573;-49
2022/07/01 00:27:32;;;;;;;;;3.00;1.00;;;;;19.66;52.97;101085.19;2082304;28;47455;-52
2022/07/01 00:28:32;;;;;;;;;1.00;1.00;;;;;19.65;52.87;101087.97;2082319;28;47164;-49
2022/07/01 00:29:33;;;;;;;;;0.00;0.00;;;;;19.65;52.51;101088.84;2082860;28;47905;-52
2022/07/01 00:30:34;;;;;;;;;1.00;1.00;;;;;19.65;52.99;101090.66;2089953;28;47698;-51
2022/07/01 00:31:35;;;;;;;;;0.00;0.00;;;;;19.64;52.57;101092.50;2089350;28;46797;-51
2022/07/01 00:32:36;;;;;;;;;1.25;0.25;;;;;19.63;52.78;101093.44;2083777;28;47671;-49
2022/07/01 00:33:36;;;;;;;;;1.00;1.00;;;;;19.62;52.47;101097.09;2080095;28;48206;-48
2022/07/01 00:34:37;;;;;;;;;2.00;0.67;;;;;19.63;52.65;101095.25;2080460;28;47534;-49
2022/07/01 00:35:38;;;;;;;;;1.00;1.00;;;;;19.62;52.74;101099.78;2079547;28;47917;-54
2022/07/01 00:36:38;;;;;;;;;1.00;1.00;;;;;19.61;53.21;101095.34;2084323;28;47419;-52
2022/07/01 00:37:39;;;;;;;;;0.33;0.33;;;;;19.61;52.96;101111.50;2084476;28;47543;-52
2022/07/01 00:38:39;;;;;;;;;0.75;0.75;;;;;19.59;52.99;101105.34;2085764;28;45668;-50
2022/07/01 00:39:40;;;;;;;;;0.67;0.33;;;;;19.58;52.80;101106.28;2082574;28;47552;-54
2022/07/01 00:40:40;;;;;;;;;0.00;0.00;;;;;19.56;52.88;101110.84;2078982;28;47858;-47
2022/07/01 00:41:41;;;;;;;;;2.00;2.00;;;;;19.55;52.78;101106.44;2085167;28;47336;-51
2022/07/01 00:42:42;;;;;;;;;0.00;0.00;;;;;19.55;52.99;101108.25;2079989;28;47530;-53
2022/07/01 00:43:42;;;;;;;;;0.00;0.00;;;;;19.53;53.25;101105.63;2079224;28;46880;-50
2022/07/01 00:44:43;;;;;;;;;2.33;0.67;;;;;19.52;52.93;101106.56;2082656;28;47349;-54
2022/07/01 00:45:47;;;;;;;;;0.00;0.00;;;;;19.53;52.91;101097.53;2079824;28;48068;-53
2022/07/01 00:46:50;;;;;;;;;0.00;0.00;;;;;19.53;53.09;101110.13;2084530;28;47461;-52
2022/07/01 00:47:51;;;;;;;;;0.00;0.00;;;;;19.53;53.09;101112.81;2086735;28;48261;-50
2022/07/01 00:48:58;;;;;;;;;2.00;1.67;;;;;19.52;52.90;101109.25;2083231;28;47503;-49
2022/07/01 00:49:59;;;;;;;;;1.00;1.00;;;;;19.51;52.96;101101.25;2083720;28;48075;-53
2022/07/01 00:50:59;;;;;;;;;0.67;0.67;;;;;19.51;53.07;101112.03;2083433;28;47922;-52
2022/07/01 00:52:00;;;;;;;;;0.00;0.00;;;;;19.50;53.08;101107.59;2087464;28;46307;-50
2022/07/01 00:53:00;;;;;;;;;1.33;1.33;;;;;19.50;52.98;101113.00;2085330;28;47712;-49
2022/07/01 00:54:01;;;;;;;;;1.75;1.75;;;;;19.48;53.35;101105.00;2086003;28;47184;-50
2022/07/01 00:55:03;;;;;;;;;0.00;0.00;;;;;19.48;53.31;101110.38;2072603;28;47502;-49
2022/07/01 00:56:05;;;;;;;;;0.00;0.00;;;;;19.48;53.37;101107.69;2078467;28;48245;-52
2022/07/01 00:57:09;;;;;;;;;1.00;1.00;;;;;19.47;52.94;101107.78;2081490;28;45869;-49
2022/07/01 00:58:09;;;;;;;;;0.00;0.00;;;;;19.47;53.01;101110.47;2081813;28;48057;-48
2022/07/01 00:59:10;;;;;;;;;0.00;0.00;;;;;19.47;52.83;101113.16;2086056;28;47265;-53
2022/07/01 01:00:12;;;;;;;;;0.00;0.00;;;;;19.45;53.07;101109.69;2081985;28;47243;-51
2022/07/01 01:01:13;;;;;;;;;2.75;0.00;;;;;19.44;53.22;101108.81;2085961;28;47737;-51
2022/07/01 01:02:13;;;;;;;;;0.67;0.67;;;;;19.42;53.03;101114.25;2086966;28;47430;-50
2022/07/01 01:03:14;;;;;;;;;0.00;0.00;;;;;19.41;53.38;101111.63;2084498;28;48143;-48
2022/07/01 01:04:14;;;;;;;;;2.33;0.33;;;;;19.41;53.46;101115.19;2083045;28;47798;-48
2022/07/01 01:05:15;;;;;;;;;0.00;0.00;;;;;19.40;53.45;101113.47;2084254;28;47543;-50
2022/07/01 01:06:16;;;;;;;;;0.67;0.67;;;;;19.40;53.42;101115.28;2085783;28;47664;-52
2022/07/01 01:07:16;;;;;;;;;0.00;0.00;;;;;19.38;53.21;101112.69;2085833;28;47758;-51
2022/07/01 01:08:17;;;;;;;;;0.00;0.00;;;;;19.39;53.19;101116.22;2080253;28;47826;-51
2022/07/01 01:09:17;;;;;;;;;0.00;0.00;;;;;19.38;53.19;101115.38;2081969;28;47654;-51
2022/07/01 01:10:19;;;;;;;;;0.00;0.00;;;;;19.38;53.36;101118.06;2080604;28;47902;-52
2022/07/01 01:11:20;;;;;;;;;0.00;0.00;;;;;19.37;53.16;101118.13;2083039;28;47454;-50
2022/07/01 01:12:20;;;;;;;;;0.00;0.00;;;;;19.36;53.36;101124.47;2083937;28;47822;-52
2022/07/01 01:13:21;;;;;;;;;0.33;0.33;;;;;19.36;53.91;101116.41;2084396;28;47409;-48
2022/07/01 01:14:21;;;;;;;;;0.00;0.00;;;;;19.35;53.39;101117.34;2082673;28;47705;-50
2022/07/01 01:15:23;;;;;;;;;0.00;0.00;;;;;19.35;53.62;101117.34;2080160;28;45441;-50
2022/07/01 01:16:25;;;;;;;;;0.25;0.25;;;;;19.34;53.42;101118.31;2082509;28;47671;-49
2022/07/01 01:17:27;;;;;;;;;1.25;1.00;;;;;19.33;53.31;101122.81;2079961;28;47713;-48
2022/07/01 01:18:27;;;;;;;;;0.00;0.00;;;;;19.34;52.92;101129.06;2082739;28;48130;-50
2022/07/01 01:19:28;;;;;;;;;0.00;0.00;;;;;19.32;53.44;101125.59;2082307;28;47437;-54
2022/07/01 01:20:35;;;;;;;;;2.00;2.00;;;;;19.32;53.67;101128.28;2081976;28;48181;-47
2022/07/01 01:21:36;;;;;;;;;2.00;0.75;;;;;19.31;53.79;101129.19;2085306;28;47747;-49
2022/07/01 01:22:36;;;;;;;;;1.00;1.00;;;;;19.31;53.74;101138.19;2083228;28;47772;-52
2022/07/01 01:23:37;;;;;;;;;0.00;0.00;;;;;19.30;53.74;101130.16;2084887;28;48780;-51
2022/07/01 01:24:38;;;;;;;;;1.00;1.00;;;;;19.30;53.58;101133.72;2086328;28;47864;-48
2022/07/01 01:25:38;;;;;;;;;1.00;0.00;;;;;19.29;53.50;101137.34;2084312;28;47918;-47
2022/07/01 01:26:38;;;;;;;;;1.00;1.00;;;;;19.29;53.36;101137.34;2083858;28;47484;-48
2022/07/01 01:27:39;;;;;;;;;1.00;1.00;;;;;19.29;53.70;101142.75;2087289;28;47478;-51
2022/07/01 01:28:39;;;;;;;;;1.00;1.00;;;;;19.29;53.43;101140.06;2080109;28;47899;-49
2022/07/01 01:29:40;;;;;;;;;2.00;1.00;;;;;19.28;53.66;101141.00;2082562;28;47622;-50
2022/07/01 01:30:40;;;;;;;;;1.40;1.40;;;;;19.27;53.21;101136.56;2083916;28;47589;-48
2022/07/01 01:31:41;;;;;;;;;2.00;2.00;;;;;19.26;53.67;101136.66;2088717;28;48065;-52
2022/07/01 01:32:41;;;;;;;;;1.00;1.00;;;;;19.26;53.69;101142.03;2086913;28;47578;-50
2022/07/01 01:33:42;;;;;;;;;0.00;0.00;;;;;19.26;53.53;101144.72;2084531;28;46415;-52
2022/07/01 01:34:42;;;;;;;;;1.00;1.00;;;;;19.24;53.67;101133.19;2083671;28;47109;-50
2022/07/01 01:35:43;;;;;;;;;0.00;0.00;;;;;19.23;53.85;101140.38;2090511;28;48054;-49
2022/07/01 01:36:43;;;;;;;;;0.00;0.00;;;;;19.23;53.67;101136.81;2093993;28;47458;-52
2022/07/01 01:37:44;;;;;;;;;0.67;0.67;;;;;19.22;53.80;101140.47;2088405;28;47963;-49
2022/07/01 01:38:44;;;;;;;;;1.00;1.00;;;;;19.23;53.94;101144.88;2086391;28;47589;-52
2022/07/01 01:39:44;;;;;;;;;2.00;0.00;;;;;19.22;53.78;101140.47;2086171;28;47440;-53
2022/07/01 01:40:45;;;;;;;;;0.00;0.00;;;;;19.22;53.94;101151.22;2081346;28;47677;-51
2022/07/01 01:41:46;;;;;;;;;1.00;0.67;;;;;19.21;53.87;101144.97;2083239;28;47738;-51
2022/07/01 01:42:47;;;;;;;;;0.25;0.25;;;;;19.21;53.91;101149.47;2083408;28;47924;-51
2022/07/01 01:43:47;;;;;;;;;1.00;0.00;;;;;19.20;53.60;101154.00;2088721;28;47792;-53
2022/07/01 01:44:47;;;;;;;;;1.00;1.00;;;;;19.20;53.75;101145.06;2084344;28;47148;-50
2022/07/01 01:45:48;;;;;;;;;1.00;1.00;;;;;19.20;53.75;101156.69;2084844;28;46575;-49
2022/07/01 01:46:48;;;;;;;;;0.00;0.00;;;;;19.19;53.74;101149.56;2084956;28;47699;-51
2022/07/01 01:47:49;;;;;;;;;0.33;0.33;;;;;19.18;54.20;101153.19;2086010;28;47799;-50
2022/07/01 01:48:49;;;;;;;;;1.33;1.33;;;;;19.18;53.52;101150.47;2085012;28;47775;-48
2022/07/01 01:49:50;;;;;;;;;2.00;2.00;;;;;19.18;54.08;101149.63;2082237;28;47860;-51
2022/07/01 01:50:50;;;;;;;;;1.00;1.00;;;;;19.18;54.32;101141.53;2083959;28;47469;-48
2022/07/01 01:51:50;;;;;;;;;0.33;0.33;;;;;19.16;54.10;101152.38;2084124;28;47757;-50
2022/07/01 01:52:51;;;;;;;;;2.00;0.00;;;;;19.16;53.92;101147.00;2084627;28;47600;-49
2022/07/01 01:53:51;;;;;;;;;0.00;0.00;;;;;19.17;53.86;101147.88;2086605;28;48002;-51
2022/07/01 01:54:51;;;;;;;;;0.00;0.00;;;;;19.16;54.14;101149.69;2082859;28;47618;-52
2022/07/01 01:55:53;;;;;;;;;1.00;0.67;;;;;19.17;54.33;101147.88;2087096;28;47428;-48
2022/07/01 01:56:53;;;;;;;;;1.50;1.50;;;;;19.16;54.14;101148.81;2083673;28;47768;-50
2022/07/01 01:57:53;;;;;;;;;0.67;0.67;;;;;19.18;54.28;101157.69;2085380;28;47508;-50
2022/07/01 01:58:54;;;;;;;;;2.00;2.00;;;;;19.17;54.16;101154.13;2089354;28;45830;-49
2022/07/01 01:59:54;;;;;;;;;2.00;1.33;;;;;19.17;54.21;101158.63;2088536;28;48086;-48
2022/07/01 02:00:55;;;;;;;;;1.00;1.00;;;;;19.17;54.01;101161.31;2084721;28;47826;-49
2022/07/01 02:01:55;;;;;;;;;1.33;1.33;;;;;19.17;54.20;101156.81;2085644;28;47721;-49
2022/07/01 02:02:56;;;;;;;;;2.67;1.67;;;;;19.18;53.92;101158.56;2084734;28;47741;-51
2022/07/01 02:03:56;;;;;;;;;1.00;1.00;;;;;19.17;53.98;101158.63;2082998;28;47857;-46
2022/07/01 02:04:56;;;;;;;;;1.00;1.00;;;;;19.16;54.11;101155.06;2085659;28;47637;-47
2022/07/01 02:05:57;;;;;;;;;0.00;0.00;;;;;19.18;54.29;101163.06;2086315;28;47321;-47
2022/07/01 02:06:57;;;;;;;;;1.00;1.00;;;;;19.17;54.23;101164.03;2083254;28;47517;-48
2022/07/01 02:07:58;;;;;;;;;2.00;2.00;;;;;19.18;54.08;101160.38;2082961;28;47130;-49
2022/07/01 02:08:58;;;;;;;;;0.00;0.00;;;;;19.18;53.90;101161.25;2083270;28;47624;-51
2022/07/01 02:09:59;;;;;;;;;0.00;0.00;;;;;19.17;54.02;101161.31;2084879;28;47392;-49
2022/07/01 02:10:59;;;;;;;;;1.00;1.00;;;;;19.17;54.06;101167.56;2085774;28;48099;-48
2022/07/01 02:12:00;;;;;;;;;1.00;1.00;;;;;19.16;54.30;101163.16;2084032;28;47699;-52
2022/07/01 02:13:00;;;;;;;;;0.00;0.00;;;;;19.16;53.97;101156.91;2084973;28;48097;-51
2022/07/01 02:14:00;;;;;;;;;0.00;0.00;;;;;19.14;54.20;101156.97;2084853;28;46324;-48
2022/07/01 02:15:01;;;;;;;;;1.00;1.00;;;;;19.16;54.08;101162.28;2086261;28;47525;-50
2022/07/01 02:16:02;;;;;;;;;2.00;0.00;;;;;19.16;54.10;101167.66;2082278;28;47535;-49
2022/07/01 02:17:03;;;;;;;;;0.00;0.00;;;;;19.17;54.08;101164.03;2085509;28;47474;-49
2022/07/01 02:18:05;;;;;;;;;2.00;2.00;;;;;19.15;54.38;101158.72;2080654;28;47929;-49
2022/07/01 02:19:06;;;;;;;;;0.50;0.50;;;;;19.15;54.43;101161.41;2085225;28;47616;-47
2022/07/01 02:20:07;;;;;;;;;0.00;0.00;;;;;19.15;54.46;101163.22;2088746;28;47462;-51
2022/07/01 02:21:07;;;;;;;;;1.00;1.00;;;;;19.15;54.37;101155.16;2085241;28;47304;-51
2022/07/01 02:22:07;;;;;;;;;2.00;2.00;;;;;19.15;54.35;101160.53;2089401;28;47448;-50
2022/07/01 02:23:09;;;;;;;;;0.00;0.00;;;;;19.13;54.33;101157.06;2086762;28;47587;-50
2022/07/01 02:24:09;;;;;;;;;3.00;2.00;;;;;19.13;54.03;101165.13;2083306;28;47602;-51
2022/07/01 02:25:09;;;;;;;;;1.67;1.00;;;;;19.11;54.43;101165.22;2084641;28;47518;-50
2022/07/01 02:26:10;;;;;;;;;0.00;0.00;;;;;19.10;54.52;101161.66;2081178;28;47779;-51
2022/07/01 02:27:12;;;;;;;;;1.00;1.00;;;;;19.10;54.36;101161.66;2080619;28;48227;-49
2022/07/01 02:28:12;;;;;;;;;1.00;1.00;;;;;19.10;54.35;101169.72;2087547;28;48134;-49
2022/07/01 02:29:13;;;;;;;;;1.00;1.00;;;;;19.09;54.46;101177.88;2082369;28;47418;-50
2022/07/01 02:30:13;;;;;;;;;1.00;1.00;;;;;19.08;54.63;101174.31;2086010;28;47224;-48
2022/07/01 02:31:14;;;;;;;;;1.33;1.00;;;;;19.08;54.76;101177.00;2082243;28;47341;-50
2022/07/01 02:32:14;;;;;;;;;2.00;1.33;;;;;19.07;54.78;101169.00;2081479;28;48036;-48
2022/07/01 02:33:14;;;;;;;;;1.00;1.00;;;;;19.06;54.79;101172.66;2080829;28;47556;-50
2022/07/01 02:34:15;;;;;;;;;0.33;0.33;;;;;19.06;54.88;101175.34;2079157;28;47381;-52
2022/07/01 02:35:15;;;;;;;;;0.00;0.00;;;;;19.05;54.71;101176.25;2082045;28;47659;-51
2022/07/01 02:36:16;;;;;;;;;1.00;1.00;;;;;19.05;54.63;101170.88;2079348;28;47890;-47
2022/07/01 02:37:16;;;;;;;;;0.67;0.00;;;;;19.05;54.68;101171.75;2082341;28;47475;-53
2022/07/01 02:38:17;;;;;;;;;1.00;0.67;;;;;19.04;55.00;101177.22;2085137;28;47835;-49
2022/07/01 02:39:17;;;;;;;;;1.33;1.33;;;;;19.02;55.02;101171.91;2072143;28;47609;-52
2022/07/01 02:40:17;;;;;;;;;1.00;1.00;;;;;19.03;54.83;101173.66;2073436;28;47881;-47
2022/07/01 02:41:18;;;;;;;;;1.67;0.67;;;;;19.04;54.61;101175.38;2083800;28;47416;-51
2022/07/01 02:42:26;;;;;;;;;0.00;0.00;;;;;19.04;54.69;101178.06;2079282;28;47290;-51
2022/07/01 02:43:26;;;;;;;;;1.25;1.25;;;;;19.05;55.01;101179.81;2078792;28;47755;-47
2022/07/01 02:44:26;;;;;;;;;3.00;1.33;;;;;19.04;54.77;101183.47;2079908;28;47495;-49
2022/07/01 02:45:27;;;;;;;;;0.00;0.00;;;;;19.03;54.79;101184.41;2085835;28;47009;-52
2022/07/01 02:46:27;;;;;;;;;1.00;1.00;;;;;19.02;55.02;101179.09;2085295;28;47543;-50
2022/07/01 02:47:36;;;;;;;;;2.00;0.00;;;;;19.02;55.13;101179.97;2086825;28;47437;-51
2022/07/01 02:48:36;;;;;;;;;0.00;0.00;;;;;19.00;54.81;101179.19;2082329;28;48184;-51
2022/07/01 02:49:39;;;;;;;;;2.00;2.00;;;;;19.00;55.07;101179.19;2087333;28;47328;-50
2022/07/01 02:50:39;;;;;;;;;0.25;0.25;;;;;19.00;55.26;101181.00;2085479;28;47950;-51
2022/07/01 02:51:39;;;;;;;;;2.00;2.00;;;;;18.99;54.94;101179.28;2082035;28;47616;-50
2022/07/01 02:52:41;;;;;;;;;1.67;1.67;;;;;18.99;55.40;101182.81;2086934;28;47680;-48
2022/07/01 02:53:42;;;;;;;;;2.00;2.00;;;;;18.99;55.26;101180.13;2082459;28;47946;-48
2022/07/01 02:54:42;;;;;;;;;0.33;0.33;;;;;19.00;55.47;101178.31;2082599;28;47451;-47
2022/07/01 02:55:42;;;;;;;;;1.00;1.00;;;;;18.99;55.20;101190.91;2084935;28;48052;-49
2022/07/01 02:56:43;;;;;;;;;2.33;2.33;;;;;19.01;55.49;101188.13;2082276;28;47625;-50
2022/07/01 02:57:44;;;;;;;;;1.33;1.00;;;;;19.01;55.35;101191.69;2084517;28;47777;-48
2022/07/01 02:58:44;;;;;;;;;2.00;2.00;;;;;19.02;55.27;101185.34;2085188;28;47287;-48
2022/07/01 02:59:44;;;;;;;;;1.00;1.00;;;;;19.03;55.30;101195.16;2083737;28;47707;-47
2022/07/01 03:00:45;;;;;;;;;2.00;2.00;;;;;19.04;55.48;101186.16;2079663;28;47625;-48
2022/07/01 03:01:45;;;;;;;;;2.00;0.67;;;;;19.04;55.10;101187.97;2082052;28;47549;-49
2022/07/01 03:02:46;;;;;;;;;4.25;4.00;;;;;19.04;55.27;101193.34;2083861;28;47520;-49
2022/07/01 03:03:46;;;;;;;;;3.00;3.00;;;;;19.04;55.34;101196.91;2086645;28;48048;-51
2022/07/01 03:04:48;;;;;;;;;2.33;2.00;;;;;19.04;55.52;101194.22;2084702;28;46348;-50
2022/07/01 03:05:49;;;;;;;;;2.00;2.00;;;;;19.04;55.64;101191.53;2085252;28;47841;-46
2022/07/01 03:06:49;;;;;;;;;1.25;1.25;;;;;19.04;55.39;101191.53;2083752;28;47551;-51
2022/07/01 03:07:49;;;;;;;;;1.67;1.67;;;;;19.03;55.83;101187.09;2081761;28;48358;-51
2022/07/01 03:08:50;;;;;;;;;1.67;1.67;;;;;19.03;55.33;101192.47;2084900;28;47530;-50
2022/07/01 03:09:51;;;;;;;;;14.75;14.75;;;;;19.02;55.12;101196.13;2083176;28;45688;-50
2022/07/01 03:10:51;;;;;;;;;58.80;47.20;;;;;19.01;55.46;101191.69;2081298;28;48204;-49
2022/07/01 03:11:52;;;;;;;;;22.75;21.75;;;;;19.00;55.48;101189.94;2088163;28;47677;-48
2022/07/01 03:12:52;;;;;;;;;11.25;11.25;;;;;19.00;55.46;101189.06;2070682;28;47412;-48
2022/07/01 03:13:53;;;;;;;;;9.75;9.75;;;;;19.00;55.32;101189.06;2075198;28;47946;-47
2022/07/01 03:14:55;;;;;;;;;3.00;3.00;;;;;18.99;55.60;101192.72;2082203;28;47468;-48
2022/07/01 03:15:55;;;;;;;;;3.80;3.40;;;;;18.99;55.59;101190.91;2085371;28;48319;-48
2022/07/01 03:16:56;;;;;;;;;5.00;5.00;;;;;18.98;55.83;101190.97;2085081;28;47569;-49
2022/07/01 03:17:56;;;;;;;;;3.00;3.00;;;;;18.98;55.42;101188.28;2082992;28;47161;-50
2022/07/01 03:18:57;;;;;;;;;5.00;4.25;;;;;18.96;55.82;101193.75;2083759;28;48148;-48
2022/07/01 03:19:58;;;;;;;;;3.00;3.00;;;;;18.96;55.75;101187.50;2085190;28;47701;-51
2022/07/01 03:20:59;;;;;;;;;5.00;4.00;;;;;18.96;55.64;101190.19;2084654;28;48156;-48
2022/07/01 03:21:59;;;;;;;;;3.00;3.00;;;;;18.96;55.63;101190.19;2082861;28;48010;-51
2022/07/01 03:23:01;;;;;;;;;3.00;3.00;;;;;18.97;55.56;101189.25;2088255;28;47553;-47
2022/07/01 03:24:01;;;;;;;;;6.25;3.50;;;;;18.97;55.72;101198.19;2080175;28;47904;-47
2022/07/01 03:25:03;;;;;;;;;3.00;3.00;;;;;18.97;55.70;101194.63;2085657;28;47517;-48
2022/07/01 03:26:04;;;;;;;;;7.40;7.20;;;;;18.96;55.42;101187.50;2085801;28;48042;-49
2022/07/01 03:27:04;;;;;;;;;2.50;2.50;;;;;18.94;55.64;101195.66;2082407;28;47739;-49
2022/07/01 03:28:05;;;;;;;;;3.75;3.00;;;;;18.92;55.43;101189.44;2086896;28;47882;-52
2022/07/01 03:29:05;;;;;;;;;2.33;2.33;;;;;18.91;55.77;101189.53;2080919;28;47822;-49
2022/07/01 03:30:06;;;;;;;;;4.00;3.00;;;;;18.90;55.82;101194.03;2085778;28;47570;-51
2022/07/01 03:31:06;;;;;;;;;2.75;2.75;;;;;18.89;55.77;101194.97;2081638;28;47961;-50
2022/07/01 03:32:11;;;;;;;;;2.67;2.67;;;;;18.88;55.66;101197.75;2083992;28;47654;-49
2022/07/01 03:33:11;;;;;;;;;2.00;2.00;;;;;18.88;55.84;101192.38;2083171;28;47617;-48
2022/07/01 03:34:12;;;;;;;;;2.00;2.00;;;;;18.86;55.67;101205.03;2087894;28;47437;-48
2022/07/01 03:36:31;;;;;;;;;15.20;14.00;;;;;18.83;55.70;101200.66;2080677;28;47897;-48
2022/07/01 03:37:31;;;;;;;;;9.25;8.75;;;;;18.84;55.69;101198.84;2083584;28;47987;-49
2022/07/01 03:38:32;;;;;;;;;2.00;2.00;;;;;18.82;55.33;101201.63;2084522;28;47161;-51
2022/07/01 03:39:34;;;;;;;;;2.00;1.00;;;;;18.81;55.35;101205.25;2082300;28;45441;-50
2022/07/01 03:40:35;;;;;;;;;1.25;1.25;;;;;18.83;55.35;101207.88;2079008;28;47985;-50
2022/07/01 03:41:35;;;;;;;;;0.67;0.67;;;;;18.82;55.16;101212.38;2078946;28;47314;-50
2022/07/01 03:42:35;;;;;;;;;2.33;2.00;;;;;18.83;55.03;101210.56;2078765;28;47385;-48
2022/07/01 03:43:36;;;;;;;;;4.00;2.00;;;;;18.81;55.54;101211.50;2080879;28;47801;-52
2022/07/01 03:44:37;;;;;;;;;1.33;1.33;;;;;18.81;55.17;101216.00;2079470;28;47804;-48
2022/07/01 03:45:39;;;;;;;;;2.00;2.00;;;;;18.79;55.04;101215.19;2086879;28;47580;-50
2022/07/01 03:46:39;;;;;;;;;2.50;2.50;;;;;18.79;55.04;101216.06;2086052;28;47900;-51
2022/07/01 03:47:48;;;;;;;;;2.00;2.00;;;;;18.78;55.23;101214.31;2079771;28;47533;-52
2022/07/01 03:48:49;;;;;;;;;2.75;2.75;;;;;18.78;55.29;101214.31;2081326;28;47583;-48
2022/07/01 03:49:49;;;;;;;;;2.00;2.00;;;;;18.76;55.32;101216.22;2082751;28;48023;-47
2022/07/01 03:50:49;;;;;;;;;2.67;2.67;;;;;18.75;55.50;101217.16;2079404;28;47808;-54
2022/07/01 03:51:51;;;;;;;;;3.33;3.33;;;;;18.75;55.42;101214.47;2083616;28;47773;-49
2022/07/01 03:54:30;;;;;;;;;1.50;1.50;;;;;18.73;55.32;101218.19;2081351;28;48329;-52
2022/07/01 03:55:30;;;;;;;;;1.75;1.50;;;;;18.72;55.42;101217.31;2082929;28;47933;-51
2022/07/01 03:56:31;;;;;;;;;2.33;2.33;;;;;18.70;55.50;101218.34;2087170;28;47955;-52
2022/07/01 03:57:31;;;;;;;;;1.33;1.33;;;;;18.69;55.55;101216.59;2084158;28;46714;-49
2022/07/01 03:58:31;;;;;;;;;2.67;1.67;;;;;18.68;55.69;101223.78;2085553;28;48318;-50
2022/07/01 03:59:36;;;;;;;;;0.67;0.67;;;;;18.67;55.52;101219.31;2084162;28;47208;-49
2022/07/01 04:00:38;;;;;;;;;0.25;0.25;;;;;18.66;55.37;101219.41;2085639;28;48037;-51
2022/07/01 04:01:38;;;;;;;;;1.00;1.00;;;;;18.65;55.90;101223.91;2078640;28;47503;-50
2022/07/01 04:02:39;;;;;;;;;3.00;3.00;;;;;18.66;55.65;101219.41;2087069;28;47678;-48
2022/07/01 04:03:40;;;;;;;;;1.33;1.33;;;;;18.64;55.66;101222.16;2082907;28;47399;-50
2022/07/01 04:04:40;;;;;;;;;1.75;1.75;;;;;18.63;55.43;101217.69;2087830;28;47957;-51
2022/07/01 04:05:41;;;;;;;;;5.00;2.00;;;;;18.63;55.46;101224.91;2082895;28;47528;-49
2022/07/01 04:06:43;;;;;;;;;2.33;2.33;;;;;18.61;55.45;101224.97;2080364;28;47895;-50
2022/07/01 04:07:43;;;;;;;;;0.00;0.00;;;;;18.61;55.55;101222.28;2088646;28;47873;-51
2022/07/01 04:08:44;;;;;;;;;2.67;2.33;;;;;18.63;55.86;101225.75;2081898;28;47720;-49
2022/07/01 04:09:45;;;;;;;;;0.75;0.75;;;;;18.62;56.06;101229.41;2086576;28;47614;-46
2022/07/01 04:10:45;;;;;;;;;0.00;0.00;;;;;18.61;55.70;101230.34;2089782;28;47784;-47
2022/07/01 04:11:48;;;;;;;;;2.00;2.00;;;;;18.61;55.77;101233.03;2090019;28;48439;-47
2022/07/01 04:12:49;;;;;;;;;1.00;1.00;;;;;18.62;55.80;101236.59;2081684;28;47486;-50
2022/07/01 04:13:52;;;;;;;;;1.33;1.33;;;;;18.62;55.55;101231.22;2083011;28;48257;-51
2022/07/01 04:14:53;;;;;;;;;1.50;1.50;;;;;18.62;55.33;101233.91;2085003;28;47360;-50
2022/07/01 04:15:53;;;;;;;;;1.00;1.00;;;;;18.62;55.38;101234.78;2085124;28;47364;-47
2022/07/01 04:16:54;;;;;;;;;1.00;1.00;;;;;18.61;55.32;101230.34;2092366;28;47242;-49
2022/07/01 04:17:55;;;;;;;;;0.67;0.67;;;;;18.63;55.25;101232.97;2092942;28;47586;-51
2022/07/01 04:18:55;;;;;;;;;0.50;0.50;;;;;18.63;55.33;101232.97;2083636;28;45252;-50
2022/07/01 04:19:56;;;;;;;;;1.00;1.00;;;;;18.62;55.13;101233.91;2085802;28;47807;-48
2022/07/01 04:22:35;;;;;;;;;1.00;1.00;;;;;18.60;55.15;101235.81;2081497;28;47392;-51
2022/07/01 04:23:35;;;;;;;;;1.00;1.00;;;;;18.60;54.95;101238.50;2085897;28;47789;-49
2022/07/01 04:24:36;;;;;;;;;1.00;1.00;;;;;18.59;55.10;101240.31;2082053;28;47653;-49
2022/07/01 04:25:36;;;;;;;;;0.33;0.33;;;;;18.59;55.09;101239.44;2086345;28;47433;-50
2022/07/01 04:26:37;;;;;;;;;1.00;1.00;;;;;18.58;55.02;101238.56;2085814;28;47557;-49
2022/07/01 04:27:37;;;;;;;;;1.00;1.00;;;;;18.57;55.13;101242.19;2080134;28;47308;-49
2022/07/01 04:28:37;;;;;;;;;1.33;1.33;;;;;18.57;55.07;101235.94;2081989;28;47905;-50
2022/07/01 04:29:38;;;;;;;;;1.00;1.00;;;;;18.56;54.96;101240.44;2081481;28;48036;-50
2022/07/01 04:30:38;;;;;;;;;1.00;1.00;;;;;18.56;54.92;101239.59;2085022;28;47632;-47
2022/07/01 04:31:39;;;;;;;;;2.67;1.00;;;;;18.56;54.91;101244.97;2086370;28;48187;-52
2022/07/01 04:32:39;;;;;;;;;0.50;0.50;;;;;18.55;55.16;101244.09;2090566;28;48460;-52
2022/07/01 04:33:40;;;;;;;;;0.67;0.00;;;;;18.54;55.08;101245.88;2085032;28;47146;-47
2022/07/01 04:34:40;;;;;;;;;1.00;1.00;;;;;18.54;55.22;101242.31;2084301;28;47820;-50
2022/07/01 04:35:41;;;;;;;;;2.00;1.00;;;;;18.53;55.22;101244.13;2080553;28;48168;-50
2022/07/01 04:36:41;;;;;;;;;2.00;2.00;;;;;18.52;55.07;101245.06;2081383;28;47636;-50
2022/07/01 04:37:42;;;;;;;;;1.67;1.67;;;;;18.52;55.09;101252.28;2086465;28;47336;-46
2022/07/01 04:38:42;;;;;;;;;1.67;1.67;;;;;18.49;55.08;101247.91;2080067;28;47804;-52
2022/07/01 04:39:43;;;;;;;;;1.00;1.00;;;;;18.48;55.00;101248.84;2081133;28;47680;-46
2022/07/01 04:41:58;;;;;;;;;1.00;1.00;;;;;18.48;54.95;101250.69;2082684;28;47261;-48
2022/07/01 04:42:04;;;;;;;;;1.40;1.40;;;;;18.47;54.99;101248.94;2084322;28;47320;-49
2022/07/01 04:43:04;;;;;;;;;1.67;1.33;;;;;18.47;55.00;101251.63;2081561;28;47364;-50
2022/07/01 04:44:05;;;;;;;;;1.75;1.50;;;;;18.46;55.19;101253.44;2083260;28;47253;-48
2022/07/01 04:45:07;;;;;;;;;1.75;1.50;;;;;18.46;55.11;101245.38;2078482;28;47319;-47
2022/07/01 04:46:07;;;;;;;;;1.20;1.20;;;;;18.46;55.23;101252.56;2085118;28;47622;-50
2022/07/01 04:47:08;;;;;;;;;1.25;1.00;;;;;18.45;55.27;101250.81;2078170;28;47733;-48